createdAt,value
2018-05-21T00:01:24.556Z,63.25
2018-05-21T00:03:55.555Z,63.30
2018-05-21T00:06:24.693Z,63.24
2018-05-21T00:08:53.774Z,63.10
2018-05-21T00:11:23.001Z,63.05
2018-05-21T00:13:51.817Z,63.06
2018-05-21T00:16:22.386Z,63.48
2018-05-21T00:18:51.029Z,63.41
2018-05-21T00:21:24.549Z,63.59
2018-05-21T00:23:53.176Z,64.20
2018-05-21T00:26:21.807Z,64.20
2018-05-21T00:28:50.434Z,63.86
2018-05-21T00:31:19.044Z,63.14
2018-05-21T00:33:47.677Z,63.36
2018-05-21T00:36:16.278Z,64.06
2018-05-21T00:38:44.939Z,64.25
2018-05-21T00:41:13.542Z,64.54
2018-05-21T00:43:42.175Z,64.55
2018-05-21T00:46:10.793Z,64.89
2018-05-21T00:48:41.886Z,65.10
2018-05-21T00:51:13.952Z,65.23
2018-05-21T00:53:43.213Z,65.09
2018-05-21T00:56:12.171Z,65.22
2018-05-21T00:58:40.799Z,65.41
2018-05-21T01:01:11.559Z,65.26
2018-05-21T01:03:40.202Z,65.05
2018-05-21T01:06:08.869Z,63.53
2018-05-21T01:08:37.631Z,65.04
2018-05-21T01:11:06.790Z,64.57
2018-05-21T01:13:35.878Z,64.33
2018-05-21T01:16:04.841Z,64.10
2018-05-21T01:18:33.914Z,63.67
2018-05-21T01:21:02.450Z,62.63
2018-05-21T01:23:31.081Z,63.48
2018-05-21T01:26:02.386Z,64.93
2018-05-21T01:28:32.773Z,64.54
2018-05-21T01:31:02.551Z,65.23
2018-05-21T01:33:31.177Z,65.17
2018-05-21T01:36:00.605Z,63.91
2018-05-21T01:38:29.219Z,65.08
2018-05-21T01:40:57.850Z,65.46
2018-05-21T01:43:26.438Z,65.59
2018-05-21T01:45:57.909Z,65.74
2018-05-21T01:48:26.518Z,65.92
2018-05-21T01:50:55.158Z,65.58
2018-05-21T01:53:33.184Z,64.24
2018-05-21T01:56:04.534Z,65.40
2018-05-21T01:58:33.428Z,66.07
2018-05-21T02:01:04.505Z,65.74
2018-05-21T02:03:33.106Z,65.57
2018-05-21T02:06:01.750Z,65.79
2018-05-21T02:08:30.417Z,65.50
2018-05-21T02:10:58.999Z,66.34
2018-05-21T02:13:27.595Z,66.11
2018-05-21T02:15:56.219Z,66.55
2018-05-21T02:18:24.814Z,66.37
2018-05-21T02:20:53.446Z,66.25
2018-05-21T02:23:22.063Z,67.26
2018-05-21T02:25:50.701Z,67.08
2018-05-21T02:28:19.302Z,67.12
2018-05-21T02:30:47.965Z,66.54
2018-05-21T02:33:16.569Z,66.43
2018-05-21T02:35:47.634Z,67.18
2018-05-21T02:38:18.393Z,67.43
2018-05-21T02:40:47.537Z,67.16
2018-05-21T02:43:16.229Z,68.19
2018-05-21T02:45:44.867Z,68.37
2018-05-21T02:48:13.497Z,67.84
2018-05-21T02:50:42.484Z,68.34
2018-05-21T02:53:11.226Z,68.00
2018-05-21T02:55:40.119Z,68.31
2018-05-21T02:58:10.373Z,68.11
2018-05-21T03:00:40.108Z,67.72
2018-05-21T03:03:12.872Z,68.28
2018-05-21T03:05:41.562Z,68.49
2018-05-21T03:08:10.651Z,68.74
2018-05-21T03:10:39.359Z,68.67
2018-05-21T03:13:07.999Z,69.08
2018-05-21T03:15:37.066Z,68.23
2018-05-21T03:18:15.486Z,68.00
2018-05-21T03:20:44.136Z,67.11
2018-05-21T03:23:12.945Z,68.48
2018-05-21T03:25:41.593Z,69.00
2018-05-21T03:28:10.703Z,67.09
2018-05-21T03:30:39.851Z,68.10
2018-05-21T03:33:08.791Z,68.89
2018-05-21T03:35:37.695Z,68.67
2018-05-21T03:38:06.363Z,68.92
2018-05-21T03:40:35.201Z,69.76
2018-05-21T03:43:04.815Z,69.47
2018-05-21T03:45:33.853Z,67.88
2018-05-21T03:48:02.548Z,67.28
2018-05-21T03:50:32.058Z,68.66
2018-05-21T03:53:01.045Z,69.09
2018-05-21T03:55:29.705Z,70.01
2018-05-21T03:58:00.821Z,69.67
2018-05-21T04:01:06.467Z,69.55
2018-05-21T04:03:56.509Z,69.43
2018-05-21T04:06:25.311Z,69.14
2018-05-21T04:08:53.912Z,69.23
2018-05-21T04:11:22.920Z,69.08
2018-05-21T04:13:51.666Z,69.30
2018-05-21T04:16:20.794Z,69.23
2018-05-21T04:18:49.801Z,68.88
2018-05-21T04:21:18.538Z,68.42
2018-05-21T04:23:47.527Z,68.35
2018-05-21T04:26:17.012Z,69.03
2018-05-21T04:28:45.798Z,68.67
2018-05-21T04:31:14.382Z,68.49
2018-05-21T04:33:43.032Z,68.72
2018-05-21T04:36:11.765Z,69.11
2018-05-21T04:38:44.268Z,69.45
2018-05-21T04:41:13.841Z,69.94
2018-05-21T04:43:42.500Z,69.53
2018-05-21T04:46:11.673Z,69.73
2018-05-21T04:48:40.430Z,70.02
2018-05-21T04:51:15.474Z,69.78
2018-05-21T04:56:36.091Z,69.39
2018-05-21T04:59:07.676Z,69.57
2018-05-21T05:01:36.330Z,68.73
2018-05-21T05:04:07.618Z,68.67
2018-05-21T05:06:36.256Z,68.77
2018-05-21T05:09:06.590Z,66.33
2018-05-21T05:11:42.840Z,67.79
2018-05-21T05:14:11.486Z,68.00
2018-05-21T05:16:47.720Z,68.55
2018-05-21T05:19:16.389Z,67.49
2018-05-21T05:21:45.467Z,65.93
2018-05-21T05:24:14.097Z,66.45
2018-05-21T05:26:43.144Z,66.58
2018-05-21T05:29:13.272Z,66.44
2018-05-21T05:31:42.388Z,66.48
2018-05-21T05:37:02.892Z,65.71
2018-05-21T05:39:34.493Z,65.65
2018-05-21T05:44:51.779Z,65.24
2018-05-21T05:47:31.576Z,62.51
2018-05-21T05:50:00.239Z,63.08
2018-05-21T05:52:29.100Z,62.69
2018-05-21T05:54:58.403Z,60.44
2018-05-21T05:57:27.157Z,61.74
2018-05-21T05:59:55.770Z,61.91
2018-05-21T06:02:24.427Z,61.90
2018-05-21T06:04:55.651Z,61.03
2018-05-21T06:07:24.256Z,60.60
2018-05-21T06:09:52.942Z,60.26
2018-05-21T06:12:21.577Z,60.16
2018-05-21T06:14:50.227Z,57.21
2018-05-21T06:17:18.845Z,58.56
2018-05-21T06:19:47.545Z,58.40
2018-05-21T06:22:16.177Z,57.90
2018-05-21T06:24:44.848Z,54.79
2018-05-21T06:27:13.477Z,56.58
2018-05-21T06:29:42.136Z,56.73
2018-05-21T06:32:12.735Z,56.69
2018-05-21T06:34:41.425Z,56.25
2018-05-21T06:37:10.114Z,55.81
2018-05-21T06:39:38.779Z,55.89
2018-05-21T06:42:07.417Z,55.29
2018-05-21T06:44:36.088Z,51.61
2018-05-21T06:47:04.706Z,53.38
2018-05-21T06:49:33.408Z,53.91
2018-05-21T06:52:02.025Z,53.44
2018-05-21T06:54:30.629Z,52.86
2018-05-21T06:56:59.277Z,52.88
2018-05-21T06:59:28.011Z,49.12
2018-05-21T07:01:58.989Z,50.58
2018-05-21T07:04:27.637Z,51.02
2018-05-21T07:06:56.289Z,51.03
2018-05-21T07:09:24.902Z,51.37
2018-05-21T07:11:53.584Z,50.50
2018-05-21T07:14:22.244Z,49.83
2018-05-21T07:16:50.915Z,49.95
2018-05-21T07:19:19.526Z,49.35
2018-05-21T07:21:48.150Z,48.53
2018-05-21T07:24:16.775Z,44.82
2018-05-21T07:26:45.462Z,47.26
2018-05-21T07:29:14.082Z,44.29
2018-05-21T07:31:43.697Z,43.93
2018-05-21T07:34:12.324Z,45.38
2018-05-21T07:36:40.987Z,45.76
2018-05-21T07:39:09.610Z,46.01
2018-05-21T07:41:38.255Z,46.41
2018-05-21T07:44:09.456Z,46.41
2018-05-21T07:46:38.100Z,46.78
2018-05-21T07:49:09.135Z,46.12
2018-05-21T07:51:39.723Z,45.53
2018-05-21T07:54:09.141Z,45.96
2018-05-21T07:56:48.790Z,41.44
2018-05-21T07:59:17.377Z,43.67
2018-05-21T08:01:49.868Z,44.30
2018-05-21T08:04:18.485Z,44.18
2018-05-21T08:06:56.118Z,44.28
2018-05-21T08:09:29.135Z,40.27
2018-05-21T08:11:58.809Z,42.50
2018-05-21T08:14:27.641Z,42.33
2018-05-21T08:16:58.403Z,41.94
2018-05-21T08:19:27.000Z,38.23
2018-05-21T08:21:55.656Z,36.34
2018-05-21T08:24:24.271Z,35.94
2018-05-21T08:26:52.895Z,38.09
2018-05-21T08:29:22.896Z,38.44
2018-05-21T08:31:51.541Z,38.54
2018-05-21T08:34:22.548Z,39.26
2018-05-21T08:36:53.633Z,35.07
2018-05-21T08:39:24.541Z,38.05
2018-05-21T08:41:53.190Z,37.65
2018-05-21T08:44:21.776Z,38.33
2018-05-21T08:46:53.046Z,38.09
2018-05-21T08:49:21.655Z,38.05
2018-05-21T08:51:51.442Z,37.58
2018-05-21T08:54:21.998Z,37.47
2018-05-21T08:56:50.640Z,37.81
2018-05-21T08:59:19.244Z,33.77
2018-05-21T09:01:49.981Z,35.98
2018-05-21T09:04:18.604Z,36.00
2018-05-21T09:06:49.465Z,36.09
2018-05-21T09:09:18.088Z,35.97
2018-05-21T09:11:46.677Z,35.38
2018-05-21T09:14:15.302Z,36.07
2018-05-21T09:16:45.135Z,35.62
2018-05-21T09:19:15.603Z,33.94
2018-05-21T09:21:44.214Z,33.98
2018-05-21T09:24:13.168Z,34.96
2018-05-21T09:26:41.779Z,31.37
2018-05-21T09:29:10.430Z,33.20
2018-05-21T09:31:39.051Z,33.91
2018-05-21T09:34:07.720Z,34.04
2018-05-21T09:36:37.294Z,33.77
2018-05-21T09:39:05.930Z,34.22
2018-05-21T09:41:34.530Z,32.77
2018-05-21T09:44:05.839Z,30.11
2018-05-21T09:46:35.407Z,28.51
2018-05-21T09:49:04.068Z,28.89
2018-05-21T09:51:32.787Z,30.89
2018-05-21T09:54:01.451Z,32.13
2018-05-21T09:56:30.071Z,31.65
2018-05-21T09:58:58.745Z,32.70
2018-05-21T10:01:27.749Z,31.80
2018-05-21T10:03:59.473Z,31.96
2018-05-21T10:06:28.091Z,31.49
2018-05-21T10:08:56.776Z,32.15
2018-05-21T10:11:27.360Z,31.61
2018-05-21T10:13:56.140Z,31.83
2018-05-21T10:16:24.734Z,31.80
2018-05-21T10:18:53.357Z,28.25
2018-05-21T10:21:21.989Z,30.37
2018-05-21T10:23:50.660Z,31.20
2018-05-21T10:26:21.322Z,27.05
2018-05-21T10:28:49.959Z,30.02
2018-05-21T10:31:20.977Z,30.09
2018-05-21T10:33:50.710Z,31.34
2018-05-21T10:36:19.370Z,30.19
2018-05-21T10:38:49.019Z,29.40
2018-05-21T10:41:17.631Z,30.82
2018-05-21T10:43:46.281Z,31.02
2018-05-21T10:46:14.858Z,30.63
2018-05-21T10:48:43.465Z,30.08
2018-05-21T10:51:12.172Z,31.43
2018-05-21T10:53:40.801Z,27.85
2018-05-21T10:56:12.088Z,26.16
2018-05-21T10:58:40.742Z,28.97
2018-05-21T11:01:09.373Z,30.27
2018-05-21T11:03:37.987Z,30.57
2018-05-21T11:06:09.707Z,29.91
2018-05-21T11:08:38.302Z,30.44
2018-05-21T11:11:08.910Z,30.82
2018-05-21T11:13:41.323Z,30.48
2018-05-21T11:16:10.360Z,25.56
2018-05-21T11:18:38.962Z,28.31
2018-05-21T11:21:07.581Z,28.91
2018-05-21T11:23:38.309Z,25.56
2018-05-21T11:26:09.304Z,27.69
2018-05-21T11:28:37.894Z,28.22
2018-05-21T11:31:06.533Z,28.72
2018-05-21T11:33:35.126Z,28.49
2018-05-21T11:36:03.745Z,28.94
2018-05-21T11:38:32.350Z,28.62
2018-05-21T11:41:00.977Z,28.50
2018-05-21T11:43:29.565Z,28.54
2018-05-21T11:45:58.210Z,28.25
2018-05-21T11:48:26.804Z,28.41
2018-05-21T11:50:55.451Z,25.87
2018-05-21T11:53:24.055Z,27.35
2018-05-21T11:55:54.752Z,27.67
2018-05-21T11:58:23.343Z,28.47
2018-05-21T12:00:52.924Z,28.23
2018-05-21T12:03:21.519Z,28.31
2018-05-21T12:05:50.146Z,28.34
2018-05-21T12:08:18.738Z,27.96
2018-05-21T12:10:47.362Z,25.53
2018-05-21T12:13:15.953Z,27.87
2018-05-21T12:15:44.615Z,27.77
2018-05-21T12:18:13.249Z,28.41
2018-05-21T12:20:41.902Z,27.90
2018-05-21T12:23:10.636Z,27.81
2018-05-21T12:25:40.323Z,28.31
2018-05-21T12:28:08.925Z,29.05
2018-05-21T12:30:38.125Z,28.19
2018-05-21T12:33:06.685Z,29.33
2018-05-21T12:35:35.299Z,29.50
2018-05-21T12:38:03.929Z,28.98
2018-05-21T12:40:32.529Z,29.01
2018-05-21T12:43:01.182Z,28.50
2018-05-21T12:45:30.839Z,28.36
2018-05-21T12:48:01.447Z,28.98
2018-05-21T12:50:30.603Z,29.03
2018-05-21T12:52:59.238Z,29.32
2018-05-21T12:55:30.160Z,28.85
2018-05-21T12:57:58.797Z,29.41
2018-05-21T13:00:27.402Z,29.74
2018-05-21T13:02:56.043Z,29.39
2018-05-21T13:05:24.647Z,27.78
2018-05-21T13:07:53.270Z,28.05
2018-05-21T13:10:21.860Z,27.99
2018-05-21T13:12:50.954Z,28.16
2018-05-21T13:15:20.111Z,28.43
2018-05-21T13:17:49.666Z,27.88
2018-05-21T13:20:18.303Z,27.28
2018-05-21T13:22:46.934Z,28.21
2018-05-21T13:25:22.683Z,28.52
2018-05-21T13:27:51.344Z,28.86
2018-05-21T13:30:21.666Z,28.35
2018-05-21T13:32:50.627Z,27.24
2018-05-21T13:35:23.541Z,27.01
2018-05-21T13:37:52.659Z,26.30
2018-05-21T13:40:23.685Z,26.92
2018-05-21T13:45:40.447Z,27.75
2018-05-21T13:48:09.165Z,26.71
2018-05-21T13:50:42.681Z,26.65
2018-05-21T13:53:11.712Z,26.34
2018-05-21T13:55:40.799Z,26.33
2018-05-21T13:58:09.715Z,25.68
2018-05-21T14:00:39.320Z,25.23
2018-05-21T14:03:07.949Z,25.95
2018-05-21T14:05:36.744Z,25.99
2018-05-21T14:08:05.681Z,23.63
2018-05-21T14:10:34.355Z,24.80
2018-05-21T14:13:03.033Z,24.66
2018-05-21T14:15:31.684Z,24.72
2018-05-21T14:18:00.352Z,25.04
2018-05-21T14:20:28.955Z,24.85
2018-05-21T14:22:57.590Z,25.31
2018-05-21T14:25:27.167Z,24.90
2018-05-21T14:27:57.255Z,24.75
2018-05-21T14:30:25.864Z,25.21
2018-05-21T14:32:54.559Z,25.17
2018-05-21T14:35:24.980Z,25.94
2018-05-21T14:37:54.979Z,22.85
2018-05-21T14:40:26.103Z,23.30
2018-05-21T14:42:54.857Z,25.00
2018-05-21T14:45:23.893Z,24.41
2018-05-21T14:47:54.628Z,24.39
2018-05-21T14:50:25.741Z,24.67
2018-05-21T14:52:54.642Z,23.83
2018-05-21T14:55:28.728Z,23.45
2018-05-21T14:57:57.330Z,22.78
2018-05-21T15:00:25.960Z,22.91
2018-05-21T15:02:54.593Z,22.05
2018-05-21T15:05:23.278Z,19.71
2018-05-21T15:07:51.875Z,20.56
2018-05-21T15:10:20.584Z,20.78
2018-05-21T15:12:49.208Z,21.04
2018-05-21T15:15:17.878Z,20.09
2018-05-21T15:17:46.847Z,20.62
2018-05-21T15:20:15.697Z,20.58
2018-05-21T15:22:46.122Z,19.95
2018-05-21T15:25:17.194Z,19.91
2018-05-21T15:27:46.715Z,20.45
2018-05-21T15:30:15.369Z,20.13
2018-05-21T15:32:44.912Z,19.45
2018-05-21T15:35:13.563Z,19.88
2018-05-21T15:37:42.199Z,19.16
2018-05-21T15:40:12.809Z,19.59
2018-05-21T15:42:43.823Z,17.85
2018-05-21T15:45:15.186Z,18.28
2018-05-21T15:47:44.783Z,19.03
2018-05-21T15:50:15.417Z,18.78
2018-05-21T15:52:44.383Z,19.02
2018-05-21T15:55:13.427Z,19.10
2018-05-21T15:57:44.198Z,19.24
2018-05-21T16:00:12.735Z,18.54
2018-05-21T16:02:41.380Z,18.96
2018-05-21T16:05:14.901Z,19.42
2018-05-21T16:07:45.897Z,19.19
2018-05-21T16:10:17.269Z,18.83
2018-05-21T16:12:53.787Z,16.65
2018-05-21T16:15:22.411Z,18.07
2018-05-21T16:17:51.184Z,18.42
2018-05-21T16:20:19.731Z,18.63
2018-05-21T16:22:51.420Z,18.77
2018-05-21T16:25:22.398Z,19.37
2018-05-21T16:27:53.351Z,18.84
2018-05-21T16:30:23.954Z,18.84
2018-05-21T16:32:52.572Z,18.74
2018-05-21T16:35:21.507Z,18.61
2018-05-21T16:37:50.497Z,18.25
2018-05-21T16:40:19.141Z,18.01
2018-05-21T16:42:51.431Z,18.77
2018-05-21T16:45:23.197Z,18.98
2018-05-21T16:47:56.810Z,18.26
2018-05-21T16:50:27.199Z,18.59
2018-05-21T16:52:56.922Z,18.31
2018-05-21T16:55:27.454Z,18.32
2018-05-21T16:57:56.132Z,18.48
2018-05-21T17:00:26.787Z,17.89
2018-05-21T17:02:55.405Z,17.84
2018-05-21T17:05:24.083Z,17.63
2018-05-21T17:07:54.978Z,17.63
2018-05-21T17:10:24.529Z,17.74
2018-05-21T17:12:53.398Z,17.66
2018-05-21T17:15:22.505Z,18.06
2018-05-21T17:17:54.055Z,17.87
2018-05-21T17:20:23.285Z,17.66
2018-05-21T17:22:53.040Z,14.28
2018-05-21T17:25:22.423Z,16.50
2018-05-21T17:27:51.641Z,17.01
2018-05-21T17:30:20.260Z,17.22
2018-05-21T17:32:51.516Z,17.97
2018-05-21T17:35:20.496Z,14.68
2018-05-21T17:37:54.742Z,17.03
2018-05-21T17:40:23.424Z,17.85
2018-05-21T17:42:53.280Z,18.60
2018-05-21T17:45:22.133Z,19.76
2018-05-21T17:47:51.968Z,20.67
2018-05-21T17:50:20.584Z,21.09
2018-05-21T17:52:52.629Z,21.23
2018-05-21T17:55:21.648Z,22.21
2018-05-21T17:57:51.598Z,23.25
2018-05-21T18:00:21.446Z,24.16
2018-05-21T18:02:50.392Z,24.97
2018-05-21T18:05:19.424Z,25.63
2018-05-21T18:07:51.387Z,26.36
2018-05-21T18:10:20.330Z,27.16
2018-05-21T18:12:49.394Z,27.69
2018-05-21T18:15:21.392Z,28.20
2018-05-21T18:18:04.475Z,28.69
2018-05-21T18:20:37.197Z,29.36
2018-05-21T18:23:21.692Z,29.87
2018-05-21T18:25:50.633Z,30.70
2018-05-21T18:28:23.664Z,31.39
2018-05-21T18:30:52.895Z,31.85
2018-05-21T18:33:23.453Z,32.40
2018-05-21T18:35:52.331Z,32.85
2018-05-21T18:38:21.026Z,33.40
2018-05-21T18:40:49.941Z,33.63
2018-05-21T18:43:22.658Z,33.71
2018-05-21T18:45:56.490Z,34.21
2018-05-21T18:48:27.168Z,34.53
2018-05-21T18:53:56.485Z,35.07
2018-05-21T18:56:25.272Z,35.45
2018-05-21T18:58:55.954Z,35.65
2018-05-21T19:01:24.565Z,36.06
2018-05-21T19:03:53.255Z,36.44
2018-05-21T19:06:22.430Z,36.16
2018-05-21T19:08:51.437Z,37.47
2018-05-21T19:11:20.145Z,37.83
2018-05-21T19:13:54.914Z,38.21
2018-05-21T19:16:23.752Z,38.86
2018-05-21T19:18:52.451Z,39.06
2018-05-21T19:21:21.084Z,39.46
2018-05-21T19:23:56.445Z,39.68
2018-05-21T19:26:25.798Z,40.61
2018-05-21T19:28:59.198Z,40.94
2018-05-21T19:31:28.236Z,41.59
2018-05-21T19:33:57.305Z,41.74
2018-05-21T19:36:26.426Z,42.12
2018-05-21T19:38:55.240Z,42.62
2018-05-21T19:41:23.984Z,42.70
2018-05-21T19:43:52.655Z,43.08
2018-05-21T19:46:21.302Z,43.02
2018-05-21T19:48:52.461Z,43.48
2018-05-21T19:51:21.151Z,43.82
2018-05-21T19:53:50.213Z,44.15
2018-05-21T19:56:18.827Z,44.75
2018-05-21T19:58:47.484Z,44.66
2018-05-21T20:01:16.148Z,44.93
2018-05-21T20:03:44.797Z,45.43
2018-05-21T20:06:13.539Z,45.43
2018-05-21T20:08:42.198Z,45.47
2018-05-21T20:11:15.628Z,45.57
2018-05-21T20:13:44.383Z,45.40
2018-05-21T20:16:12.995Z,45.51
2018-05-21T20:18:41.669Z,46.39
2018-05-21T20:21:10.312Z,46.55
2018-05-21T20:23:38.993Z,46.75
2018-05-21T20:26:09.047Z,46.86
2018-05-21T20:28:37.731Z,46.85
2018-05-21T20:31:06.432Z,47.34
2018-05-21T20:33:35.134Z,48.53
2018-05-21T20:36:03.897Z,48.45
2018-05-21T20:38:32.664Z,47.76
2018-05-21T20:41:01.290Z,48.78
2018-05-21T20:43:30.216Z,49.18
2018-05-21T20:46:02.869Z,48.20
2018-05-21T20:48:31.628Z,49.54
2018-05-21T20:51:02.055Z,49.44
2018-05-21T20:53:33.208Z,50.13
2018-05-21T20:56:02.199Z,51.24
2018-05-21T20:58:30.834Z,51.05
2018-05-21T21:00:59.999Z,51.45
2018-05-21T21:03:33.742Z,51.79
2018-05-21T21:06:03.716Z,51.73
2018-05-21T21:08:32.347Z,52.00
2018-05-21T21:11:01.017Z,51.75
2018-05-21T21:13:29.679Z,51.28
2018-05-21T21:16:01.816Z,50.99
2018-05-21T21:18:31.548Z,50.30
2018-05-21T21:21:02.749Z,51.00
2018-05-21T21:23:31.731Z,51.37
2018-05-21T21:26:00.473Z,51.82
2018-05-21T21:28:29.137Z,51.84
2018-05-21T21:31:00.334Z,51.95
2018-05-21T21:33:29.021Z,52.20
2018-05-21T21:35:57.731Z,51.71
2018-05-21T21:38:26.568Z,52.68
2018-05-21T21:40:59.385Z,53.08
2018-05-21T21:43:29.823Z,53.02
2018-05-21T21:45:58.482Z,53.34
2018-05-21T21:48:27.174Z,53.62
2018-05-21T21:50:56.075Z,53.21
2018-05-21T21:53:24.994Z,54.09
2018-05-21T21:55:53.672Z,54.12
2018-05-21T21:58:22.315Z,54.54
2018-05-21T22:00:53.302Z,54.48
2018-05-21T22:03:22.215Z,54.71
2018-05-21T22:05:50.993Z,54.86
2018-05-21T22:08:20.172Z,54.66
2018-05-21T22:10:54.882Z,54.99
2018-05-21T22:13:28.240Z,54.86
2018-05-21T22:16:02.605Z,55.06
2018-05-21T22:18:31.928Z,55.14
2018-05-21T22:21:00.611Z,55.56
2018-05-21T22:23:29.284Z,55.85
2018-05-21T22:25:59.101Z,55.07
2018-05-21T22:28:28.033Z,55.58
2018-05-21T22:30:56.933Z,55.80
2018-05-21T22:33:29.418Z,55.73
2018-05-21T22:36:00.851Z,56.39
2018-05-21T22:38:31.536Z,56.04
2018-05-21T22:41:01.704Z,57.05
2018-05-21T22:43:30.772Z,57.31
2018-05-21T22:45:59.708Z,57.23
2018-05-21T22:48:28.719Z,57.27
2018-05-21T22:51:08.502Z,57.58
2018-05-21T22:53:38.351Z,57.42
2018-05-21T22:56:07.256Z,57.44
2018-05-21T22:58:37.424Z,57.19
2018-05-21T23:01:06.569Z,55.90
2018-05-21T23:03:38.687Z,57.11
2018-05-21T23:06:07.471Z,57.12
2018-05-21T23:08:37.715Z,56.57
2018-05-21T23:11:08.660Z,56.54
2018-05-21T23:13:41.164Z,56.80
2018-05-21T23:16:10.259Z,56.81
2018-05-21T23:18:42.671Z,57.85
2018-05-21T23:21:11.495Z,58.08
2018-05-21T23:23:41.516Z,58.12
2018-05-21T23:26:10.370Z,58.41
2018-05-21T23:28:40.361Z,58.41
2018-05-21T23:31:09.022Z,58.65
2018-05-21T23:33:39.534Z,58.34
2018-05-21T23:36:08.158Z,58.31
2018-05-21T23:38:37.064Z,58.84
2018-05-21T23:41:06.187Z,58.32
2018-05-21T23:43:37.477Z,58.15
2018-05-21T23:46:06.227Z,57.85
2018-05-21T23:48:34.923Z,58.56
2018-05-21T23:51:03.836Z,58.43
2018-05-21T23:53:32.407Z,58.50
2018-05-21T23:56:01.075Z,58.12
2018-05-21T23:58:29.837Z,58.91
